createdAt,value
2018-11-12T00:00:18.868Z,2.50
2018-11-12T00:02:48.393Z,3.08
2018-11-12T00:05:16.130Z,2.00
2018-11-12T00:07:43.790Z,1.80
2018-11-12T00:10:11.215Z,2.05
2018-11-12T00:12:38.655Z,1.80
2018-11-12T00:15:06.594Z,2.27
2018-11-12T00:17:33.941Z,2.50
2018-11-12T00:20:01.326Z,2.40
2018-11-12T00:22:28.915Z,2.40
2018-11-12T00:24:56.276Z,2.20
2018-11-12T00:27:24.156Z,1.95
2018-11-12T00:29:51.726Z,2.25
2018-11-12T00:32:19.323Z,2.75
2018-11-12T00:34:46.901Z,1.80
2018-11-12T00:37:14.346Z,2.40
2018-11-12T00:39:42.186Z,2.05
2018-11-12T00:42:10.099Z,1.67
2018-11-12T00:44:38.280Z,2.42
2018-11-12T00:47:05.657Z,2.30
2018-11-12T00:49:33.019Z,1.75
2018-11-12T00:52:00.412Z,4.15
2018-11-12T00:54:27.811Z,1.70
2018-11-12T00:56:55.170Z,1.80
2018-11-12T00:59:22.596Z,2.20
2018-11-12T01:01:50.001Z,2.60
2018-11-12T01:04:18.124Z,1.65
2018-11-12T01:06:45.362Z,3.25
2018-11-12T01:09:13.119Z,2.20
2018-11-12T01:11:40.574Z,1.95
2018-11-12T01:14:08.056Z,3.35
2018-11-12T01:16:35.433Z,2.58
2018-11-12T01:19:02.944Z,1.72
2018-11-12T01:21:30.333Z,2.00
2018-11-12T01:23:57.710Z,1.90
2018-11-12T01:26:25.067Z,1.90
2018-11-12T01:28:52.382Z,2.00
2018-11-12T01:31:19.714Z,2.80
2018-11-12T01:33:47.148Z,1.70
2018-11-12T01:36:14.559Z,2.20
2018-11-12T01:38:41.897Z,1.70
2018-11-12T01:41:09.271Z,2.62
2018-11-12T01:43:36.610Z,2.00
2018-11-12T01:46:03.927Z,2.05
2018-11-12T01:48:31.269Z,1.80
2018-11-12T01:50:58.670Z,2.30
2018-11-12T01:53:26.074Z,2.58
2018-11-12T01:55:53.476Z,2.20
2018-11-12T01:58:20.812Z,2.37
2018-11-12T02:00:48.183Z,2.00
2018-11-12T02:03:15.542Z,1.85
2018-11-12T02:05:42.881Z,2.17
2018-11-12T02:08:10.228Z,1.62
2018-11-12T02:10:37.654Z,1.85
2018-11-12T02:13:05.088Z,2.40
2018-11-12T02:15:32.456Z,2.20
2018-11-12T02:17:59.787Z,1.90
2018-11-12T02:20:27.148Z,3.83
2018-11-12T02:22:54.640Z,2.00
2018-11-12T02:25:21.892Z,2.00
2018-11-12T02:27:49.265Z,2.62
2018-11-12T02:30:21.338Z,2.00
2018-11-12T02:32:48.719Z,2.20
2018-11-12T02:35:16.083Z,2.05
2018-11-12T02:37:43.417Z,1.90
2018-11-12T02:40:12.090Z,1.70
2018-11-12T02:42:39.505Z,1.80
2018-11-12T02:45:07.341Z,1.90
2018-11-12T02:47:34.657Z,2.30
2018-11-12T02:50:02.021Z,1.82
2018-11-12T02:52:29.403Z,2.40
2018-11-12T02:54:56.754Z,1.80
2018-11-12T02:57:24.242Z,2.12
2018-11-12T02:59:51.679Z,2.17
2018-11-12T03:02:19.011Z,2.20
2018-11-12T03:04:46.370Z,2.87
2018-11-12T03:07:13.757Z,3.00
2018-11-12T03:09:41.136Z,1.80
2018-11-12T03:12:08.464Z,1.60
2018-11-12T03:14:35.860Z,2.72
2018-11-12T03:17:03.202Z,1.70
2018-11-12T03:19:30.576Z,2.00
2018-11-12T03:21:57.958Z,1.70
2018-11-12T03:24:25.411Z,1.60
2018-11-12T03:26:52.755Z,1.62
2018-11-12T03:29:20.197Z,1.92
2018-11-12T03:31:47.725Z,2.15
2018-11-12T03:34:15.112Z,2.10
2018-11-12T03:36:42.619Z,2.05
2018-11-12T03:39:11.025Z,1.82
2018-11-12T03:41:38.426Z,2.22
2018-11-12T03:44:06.138Z,2.35
2018-11-12T03:46:33.547Z,2.75
2018-11-12T03:49:00.987Z,2.08
2018-11-12T03:51:28.410Z,2.17
2018-11-12T03:53:55.802Z,2.00
2018-11-12T03:56:23.123Z,1.80
2018-11-12T03:58:50.480Z,2.00
2018-11-12T04:01:17.827Z,2.27
2018-11-12T04:03:45.237Z,2.17
2018-11-12T04:06:12.551Z,2.22
2018-11-12T04:08:39.894Z,2.45
2018-11-12T04:11:07.515Z,2.12
2018-11-12T04:13:34.909Z,2.60
2018-11-12T04:16:02.314Z,2.70
2018-11-12T04:18:29.658Z,1.90
2018-11-12T04:20:57.112Z,1.90
2018-11-12T04:23:24.498Z,1.90
2018-11-12T04:25:51.961Z,2.60
2018-11-12T04:28:19.334Z,2.15
2018-11-12T04:30:46.729Z,1.90
2018-11-12T04:33:14.167Z,1.80
2018-11-12T04:35:41.515Z,1.95
2018-11-12T04:38:08.866Z,1.92
2018-11-12T04:40:36.287Z,1.80
2018-11-12T04:43:03.619Z,2.45
2018-11-12T04:45:30.981Z,1.70
2018-11-12T04:47:58.518Z,1.85
2018-11-12T04:50:27.260Z,1.80
2018-11-12T04:52:54.946Z,2.77
2018-11-12T04:55:22.948Z,2.20
2018-11-12T04:57:50.345Z,1.85
2018-11-12T05:00:22.526Z,2.35
2018-11-12T05:02:49.953Z,4.10
2018-11-12T05:05:18.574Z,2.20
2018-11-12T05:07:46.118Z,2.27
2018-11-12T05:10:14.871Z,1.90
2018-11-12T05:12:52.522Z,3.62
2018-11-12T05:15:22.056Z,2.50
2018-11-12T05:17:50.280Z,2.10
2018-11-12T05:20:19.081Z,1.98
2018-11-12T05:22:46.411Z,2.98
2018-11-12T05:25:13.742Z,2.87
2018-11-12T05:27:41.113Z,2.67
2018-11-12T05:30:10.504Z,5.42
2018-11-12T05:32:37.810Z,5.03
2018-11-12T05:35:05.158Z,2.33
2018-11-12T05:37:32.510Z,8.45
2018-11-12T05:39:59.828Z,2.92
2018-11-12T05:42:27.277Z,7.87
2018-11-12T05:44:54.705Z,5.20
2018-11-12T05:47:22.004Z,7.12
2018-11-12T05:49:49.318Z,24.55
2018-11-12T05:52:16.609Z,6.83
2018-11-12T05:54:43.936Z,5.65
2018-11-12T05:57:11.256Z,5.80
2018-11-12T05:59:38.548Z,3.20
2018-11-12T06:02:05.959Z,2.90
2018-11-12T06:04:33.239Z,3.00
2018-11-12T06:07:00.543Z,4.05
2018-11-12T06:09:27.888Z,5.47
2018-11-12T06:11:55.264Z,5.42
2018-11-12T06:14:22.591Z,3.85
2018-11-12T06:16:49.937Z,3.10
2018-11-12T06:19:17.236Z,3.55
2018-11-12T06:21:44.542Z,3.87
2018-11-12T06:24:11.871Z,3.52
2018-11-12T06:26:39.184Z,3.85
2018-11-12T06:29:06.488Z,4.10
2018-11-12T06:31:33.784Z,5.97
2018-11-12T06:34:01.212Z,4.28
2018-11-12T06:36:28.620Z,6.22
2018-11-12T06:38:55.951Z,5.20
2018-11-12T06:41:23.448Z,6.37
2018-11-12T06:43:50.763Z,6.45
2018-11-12T06:46:18.069Z,6.37
2018-11-12T06:48:45.407Z,7.47
2018-11-12T06:51:12.755Z,10.98
2018-11-12T06:53:40.042Z,7.37
2018-11-12T06:56:07.401Z,6.92
2018-11-12T06:58:34.745Z,7.50
2018-11-12T07:01:02.082Z,8.50
2018-11-12T07:03:29.458Z,6.35
2018-11-12T07:05:56.810Z,5.97
2018-11-12T07:08:24.187Z,6.25
2018-11-12T07:10:51.518Z,4.72
2018-11-12T07:13:19.069Z,6.30
2018-11-12T07:15:46.239Z,5.97
2018-11-12T07:18:13.617Z,5.85
2018-11-12T07:20:40.908Z,6.47
2018-11-12T07:23:08.190Z,6.67
2018-11-12T07:25:35.555Z,7.37
2018-11-12T07:28:02.880Z,7.30
2018-11-12T07:30:30.185Z,7.75
2018-11-12T07:32:58.527Z,7.47
2018-11-12T07:35:26.233Z,7.90
2018-11-12T07:37:54.576Z,9.30
2018-11-12T07:40:22.327Z,9.90
2018-11-12T07:42:49.720Z,8.13
2018-11-12T07:45:18.318Z,8.83
2018-11-12T07:47:46.576Z,10.98
2018-11-12T07:50:16.163Z,12.05
2018-11-12T07:52:43.537Z,11.28
2018-11-12T07:55:12.800Z,8.10
2018-11-12T07:57:40.081Z,7.95
2018-11-12T08:00:10.794Z,10.35
2018-11-12T08:02:38.215Z,9.45
2018-11-12T08:05:05.990Z,8.25
2018-11-12T08:07:33.397Z,8.60
2018-11-12T08:10:00.835Z,10.65
2018-11-12T08:12:28.179Z,7.78
2018-11-12T08:14:55.540Z,11.05
2018-11-12T08:17:22.895Z,10.90
2018-11-12T08:19:50.271Z,7.47
2018-11-12T08:22:17.598Z,9.35
2018-11-12T08:24:45.151Z,10.55
2018-11-12T08:27:12.430Z,9.30
2018-11-12T08:29:39.820Z,7.42
2018-11-12T08:32:07.079Z,8.93
2018-11-12T08:34:34.427Z,10.65
2018-11-12T08:37:01.748Z,10.43
2018-11-12T08:39:29.283Z,10.20
2018-11-12T08:41:56.426Z,9.55
2018-11-12T08:44:23.783Z,10.10
2018-11-12T08:46:51.142Z,10.00
2018-11-12T08:49:18.521Z,11.08
2018-11-12T08:51:45.779Z,15.23
2018-11-12T08:54:13.101Z,13.35
2018-11-12T08:56:40.510Z,10.98
2018-11-12T08:59:07.896Z,14.13
2018-11-12T09:01:35.379Z,9.70
2018-11-12T09:04:02.770Z,10.03
2018-11-12T09:06:30.027Z,9.10
2018-11-12T09:08:57.618Z,9.68
2018-11-12T09:11:25.177Z,10.45
2018-11-12T09:13:52.496Z,8.60
2018-11-12T09:16:20.031Z,9.23
2018-11-12T09:18:47.379Z,8.78
2018-11-12T09:21:14.697Z,8.90
2018-11-12T09:23:42.278Z,10.32
2018-11-12T09:26:09.852Z,10.40
2018-11-12T09:28:38.262Z,12.40
2018-11-12T09:31:07.091Z,11.95
2018-11-12T09:33:33.222Z,10.40
2018-11-12T09:36:00.729Z,11.18
2018-11-12T09:38:28.119Z,11.35
2018-11-12T09:40:56.000Z,10.30
2018-11-12T09:43:23.408Z,10.45
2018-11-12T09:45:58.608Z,12.28
2018-11-12T09:48:26.350Z,10.90
2018-11-12T09:50:53.947Z,10.75
2018-11-12T09:53:23.375Z,10.58
2018-11-12T09:55:50.786Z,12.28
2018-11-12T09:58:19.406Z,10.72
2018-11-12T10:00:49.229Z,11.35
2018-11-12T10:03:22.443Z,9.60
2018-11-12T10:05:50.373Z,10.93
2018-11-12T10:08:18.337Z,9.73
2018-11-12T10:10:51.269Z,9.93
2018-11-12T10:13:19.512Z,11.00
2018-11-12T10:15:48.322Z,11.00
2018-11-12T10:20:39.754Z,10.05
2018-11-12T10:23:07.197Z,9.75
2018-11-12T10:25:34.576Z,10.03
2018-11-12T10:28:01.917Z,10.13
2018-11-12T10:30:29.472Z,11.80
2018-11-12T10:32:57.030Z,9.38
2018-11-12T10:35:24.333Z,9.38
2018-11-12T10:37:52.303Z,10.48
2018-11-12T10:40:21.252Z,10.45
2018-11-12T10:42:48.628Z,10.95
2018-11-12T10:45:16.300Z,12.33
2018-11-12T10:47:44.216Z,10.65
2018-11-12T10:50:11.908Z,9.95
2018-11-12T10:52:39.285Z,10.40
2018-11-12T10:55:07.909Z,10.50
2018-11-12T10:57:35.145Z,10.33
2018-11-12T11:00:02.745Z,9.33
2018-11-12T11:02:36.729Z,10.57
2018-11-12T11:05:04.177Z,9.33
2018-11-12T11:07:32.011Z,9.00
2018-11-12T11:09:59.326Z,9.80
2018-11-12T11:12:27.269Z,10.07
2018-11-12T11:14:54.655Z,8.13
2018-11-12T11:17:24.495Z,12.03
2018-11-12T11:19:51.890Z,8.43
2018-11-12T11:22:19.174Z,7.70
2018-11-12T11:24:46.736Z,7.60
2018-11-12T11:27:14.296Z,7.22
2018-11-12T11:29:41.841Z,8.30
2018-11-12T11:32:09.144Z,8.70
2018-11-12T11:34:36.493Z,8.20
2018-11-12T11:37:03.803Z,7.57
2018-11-12T11:39:31.258Z,7.43
2018-11-12T11:41:59.108Z,6.83
2018-11-12T11:44:27.632Z,7.87
2018-11-12T11:46:54.928Z,6.07
2018-11-12T11:49:22.492Z,6.17
2018-11-12T11:51:49.798Z,5.97
2018-11-12T11:54:17.166Z,5.63
2018-11-12T11:56:44.882Z,5.43
2018-11-12T11:59:12.330Z,7.73
2018-11-12T12:01:39.659Z,5.50
2018-11-12T12:04:06.987Z,4.80
2018-11-12T12:06:34.596Z,5.07
2018-11-12T12:09:01.883Z,4.90
2018-11-12T12:11:29.611Z,4.20
2018-11-12T12:13:57.121Z,6.30
2018-11-12T12:16:24.738Z,3.80
2018-11-12T12:18:52.315Z,3.50
2018-11-12T12:21:19.964Z,5.93
2018-11-12T12:23:47.264Z,3.53
2018-11-12T12:26:14.567Z,4.63
2018-11-12T12:28:42.269Z,3.80
2018-11-12T12:31:09.622Z,3.87
2018-11-12T12:33:37.181Z,3.83
2018-11-12T12:36:04.586Z,6.30
2018-11-12T12:38:33.122Z,4.47
2018-11-12T12:41:00.672Z,4.27
2018-11-12T12:43:28.024Z,4.30
2018-11-12T12:45:55.716Z,3.93
2018-11-12T12:48:22.950Z,4.60
2018-11-12T12:50:50.518Z,4.10
2018-11-12T12:53:17.826Z,4.17
2018-11-12T12:55:45.610Z,4.97
2018-11-12T12:58:13.090Z,5.60
2018-11-12T13:00:40.833Z,4.20
2018-11-12T13:03:08.395Z,5.20
2018-11-12T13:05:35.669Z,4.40
2018-11-12T13:08:02.949Z,4.10
2018-11-12T13:10:30.503Z,5.77
2018-11-12T13:12:57.808Z,3.83
2018-11-12T13:15:25.143Z,3.57
2018-11-12T13:17:52.973Z,3.60
2018-11-12T13:20:21.896Z,5.57
2018-11-12T13:22:50.092Z,4.20
2018-11-12T13:25:17.768Z,4.80
2018-11-12T13:27:45.823Z,3.50
2018-11-12T13:30:27.954Z,5.03
2018-11-12T13:32:55.215Z,3.73
2018-11-12T13:35:23.880Z,3.97
2018-11-12T13:37:51.217Z,3.37
2018-11-12T13:40:26.313Z,3.50
2018-11-12T13:42:57.870Z,3.20
2018-11-12T13:45:25.957Z,4.70
2018-11-12T13:47:54.480Z,3.90
2018-11-12T13:50:23.024Z,2.93
2018-11-12T13:52:51.052Z,2.73
2018-11-12T13:55:20.212Z,3.43
2018-11-12T13:57:47.536Z,2.83
2018-11-12T14:00:16.095Z,4.20
2018-11-12T14:02:44.871Z,3.13
2018-11-12T14:05:15.576Z,3.17
2018-11-12T14:07:46.684Z,3.50
2018-11-12T14:10:16.400Z,3.37
2018-11-12T14:12:44.024Z,4.00
2018-11-12T14:15:12.897Z,3.53
2018-11-12T14:17:40.682Z,3.80
2018-11-12T14:20:08.250Z,2.90
2018-11-12T14:22:35.696Z,3.20
2018-11-12T14:25:03.495Z,10.20
2018-11-12T14:27:30.830Z,3.17
2018-11-12T14:29:58.251Z,3.33
2018-11-12T14:32:25.810Z,3.53
2018-11-12T14:34:53.314Z,3.10
2018-11-12T14:37:20.625Z,2.93
2018-11-12T14:39:48.156Z,2.97
2018-11-12T14:42:15.702Z,3.10
2018-11-12T14:44:43.096Z,3.07
2018-11-12T14:47:10.672Z,5.80
2018-11-12T14:49:38.006Z,3.33
2018-11-12T14:52:05.569Z,3.80
2018-11-12T14:54:33.241Z,3.50
2018-11-12T14:57:01.235Z,3.12
2018-11-12T14:59:28.587Z,3.60
2018-11-12T15:01:55.994Z,3.75
2018-11-12T15:04:23.509Z,3.12
2018-11-12T15:06:51.074Z,3.05
2018-11-12T15:09:20.879Z,3.20
2018-11-12T15:11:48.510Z,3.42
2018-11-12T15:14:16.053Z,3.67
2018-11-12T15:16:45.466Z,4.53
2018-11-12T15:19:13.572Z,3.27
2018-11-12T15:21:45.849Z,3.20
2018-11-12T15:24:13.259Z,3.10
2018-11-12T15:26:40.548Z,3.25
2018-11-12T15:29:08.236Z,3.50
2018-11-12T15:31:38.292Z,4.78
2018-11-12T15:34:07.762Z,3.55
2018-11-12T15:36:38.734Z,4.75
2018-11-12T15:39:07.956Z,3.52
2018-11-12T15:41:37.082Z,3.65
2018-11-12T15:44:05.787Z,3.60
2018-11-12T15:46:34.116Z,10.63
2018-11-12T15:49:03.517Z,4.60
2018-11-12T15:51:37.357Z,5.10
2018-11-12T15:54:05.511Z,3.42
2018-11-12T15:56:34.465Z,4.53
2018-11-12T15:59:03.315Z,3.95
2018-11-12T16:01:33.257Z,3.80
2018-11-12T16:04:02.894Z,4.42
2018-11-12T16:06:32.086Z,3.95
2018-11-12T16:09:02.280Z,3.20
2018-11-12T16:11:31.153Z,3.10
2018-11-12T16:14:00.778Z,5.47
2018-11-12T16:16:29.490Z,3.45
2018-11-12T16:18:57.880Z,4.03
2018-11-12T16:21:25.370Z,3.47
2018-11-12T16:23:54.531Z,3.50
2018-11-12T16:26:22.117Z,3.70
2018-11-12T16:28:51.960Z,3.42
2018-11-12T16:31:19.870Z,3.50
2018-11-12T16:33:48.193Z,8.20
2018-11-12T16:36:16.009Z,4.67
2018-11-12T16:38:43.327Z,3.50
2018-11-12T16:41:11.066Z,4.75
2018-11-12T16:43:38.620Z,3.65
2018-11-12T16:46:06.191Z,4.08
2018-11-12T16:48:33.456Z,3.15
2018-11-12T16:51:00.751Z,3.35
2018-11-12T16:53:28.103Z,4.85
2018-11-12T16:55:55.461Z,10.08
2018-11-12T16:58:22.816Z,5.83
2018-11-12T17:00:50.209Z,4.12
2018-11-12T17:03:17.542Z,3.62
2018-11-12T17:05:45.394Z,4.22
2018-11-12T17:08:12.756Z,5.25
2018-11-12T17:10:41.309Z,5.35
2018-11-12T17:13:09.305Z,7.10
2018-11-12T17:15:36.652Z,6.00
2018-11-12T17:18:04.269Z,7.83
2018-11-12T17:20:31.973Z,8.18
2018-11-12T17:23:01.063Z,7.10
2018-11-12T17:25:30.183Z,11.57
2018-11-12T17:27:58.402Z,12.30
2018-11-12T17:30:30.263Z,14.80
2018-11-12T17:32:59.907Z,13.50
2018-11-12T17:35:28.048Z,16.23
2018-11-12T17:37:57.509Z,13.13
2018-11-12T17:40:27.567Z,17.02
2018-11-12T17:42:58.408Z,17.87
2018-11-12T17:45:28.162Z,17.77
2018-11-12T17:47:57.632Z,20.37
2018-11-12T17:50:28.914Z,18.98
2018-11-12T17:52:58.872Z,23.60
2018-11-12T17:55:28.820Z,24.77
2018-11-12T17:57:57.572Z,23.80
2018-11-12T18:00:29.446Z,20.40
2018-11-12T18:02:58.014Z,22.13
2018-11-12T18:05:25.743Z,22.30
2018-11-12T18:07:55.104Z,22.20
2018-11-12T18:10:24.928Z,21.75
2018-11-12T18:12:53.069Z,23.42
2018-11-12T18:15:23.004Z,21.80
2018-11-12T18:17:55.057Z,20.27
2018-11-12T18:20:26.318Z,20.70
2018-11-12T18:22:57.049Z,21.35
2018-11-12T18:25:25.859Z,18.65
2018-11-12T18:27:55.659Z,23.70
2018-11-12T18:30:27.206Z,19.32
2018-11-12T18:32:58.298Z,20.97
2018-11-12T18:35:26.072Z,21.57
2018-11-12T18:37:55.968Z,24.37
2018-11-12T18:40:27.641Z,23.35
2018-11-12T18:42:55.067Z,21.15
2018-11-12T18:45:23.628Z,23.12
2018-11-12T18:47:51.038Z,22.70
2018-11-12T18:50:21.086Z,26.62
2018-11-12T18:52:48.737Z,23.47
2018-11-12T18:55:16.354Z,25.05
2018-11-12T18:57:44.779Z,25.80
2018-11-12T19:00:12.929Z,24.32
2018-11-12T19:02:40.791Z,23.25
2018-11-12T19:05:10.692Z,24.60
2018-11-12T19:07:39.604Z,26.10
2018-11-12T19:10:08.880Z,30.37
2018-11-12T19:12:36.537Z,29.27
2018-11-12T19:15:06.034Z,28.75
2018-11-12T19:17:33.385Z,30.05
2018-11-12T19:20:00.715Z,32.17
2018-11-12T19:22:28.052Z,35.13
2018-11-12T19:24:55.369Z,32.53
2018-11-12T19:27:22.992Z,30.02
2018-11-12T19:29:51.137Z,31.65
2018-11-12T19:32:20.731Z,38.33
2018-11-12T19:34:48.445Z,30.85
2018-11-12T19:37:16.005Z,33.83
2018-11-12T19:39:43.457Z,34.92
2018-11-12T19:42:10.926Z,32.85
2018-11-12T19:44:38.314Z,35.08
2018-11-12T19:47:06.070Z,35.48
2018-11-12T19:49:33.557Z,35.70
2018-11-12T19:52:01.358Z,40.17
2018-11-12T19:54:31.667Z,35.65
2018-11-12T19:56:59.171Z,36.80
2018-11-12T19:59:26.826Z,38.92
2018-11-12T20:01:54.384Z,42.62
2018-11-12T20:04:21.879Z,38.67
2018-11-12T20:06:50.587Z,38.35
2018-11-12T20:09:19.146Z,36.73
2018-11-12T20:11:48.303Z,40.65
2018-11-12T20:14:16.679Z,41.08
2018-11-12T20:16:45.406Z,42.80
2018-11-12T20:19:15.733Z,37.95
2018-11-12T20:21:45.369Z,40.28
2018-11-12T20:24:15.341Z,38.63
2018-11-12T20:26:44.426Z,41.42
2018-11-12T20:29:13.385Z,41.45
2018-11-12T20:31:43.771Z,39.55
2018-11-12T20:34:13.593Z,41.92
2018-11-12T20:36:41.413Z,40.60
2018-11-12T20:39:11.016Z,38.88
2018-11-12T20:41:38.800Z,44.40
2018-11-12T20:44:07.089Z,44.03
2018-11-12T20:46:36.578Z,38.23
2018-11-12T20:49:04.026Z,47.65
2018-11-12T20:51:31.445Z,41.48
2018-11-12T20:54:02.816Z,47.25
2018-11-12T20:56:32.032Z,45.15
2018-11-12T20:59:02.923Z,40.98
2018-11-12T21:01:32.166Z,41.00
2018-11-12T21:04:00.061Z,44.25
2018-11-12T21:06:28.340Z,43.13
2018-11-12T21:09:00.774Z,45.28
2018-11-12T21:11:29.429Z,42.93
2018-11-12T21:13:59.624Z,40.50
2018-11-12T21:16:27.125Z,47.48
2018-11-12T21:18:54.868Z,46.63
2018-11-12T21:21:22.862Z,41.88
2018-11-12T21:23:52.856Z,44.27
2018-11-12T21:26:22.747Z,47.45
2018-11-12T21:28:50.871Z,46.92
2018-11-12T21:31:18.536Z,45.12
2018-11-12T21:33:46.404Z,49.05
2018-11-12T21:36:13.756Z,42.90
2018-11-12T21:38:42.338Z,51.23
2018-11-12T21:41:09.903Z,45.28
2018-11-12T21:43:37.594Z,45.88
2018-11-12T21:46:05.310Z,44.42
2018-11-12T21:48:32.678Z,47.30
2018-11-12T21:51:01.264Z,49.95
2018-11-12T21:53:28.787Z,51.63
2018-11-12T21:55:56.173Z,50.50
2018-11-12T21:58:23.972Z,48.35
2018-11-12T22:00:51.380Z,51.70
2018-11-12T22:03:18.928Z,52.33
2018-11-12T22:05:46.503Z,46.75
2018-11-12T22:08:14.159Z,52.27
2018-11-12T22:10:41.711Z,49.77
2018-11-12T22:13:09.126Z,49.80
2018-11-12T22:15:36.480Z,47.70
2018-11-12T22:18:03.823Z,51.83
2018-11-12T22:20:31.163Z,53.60
2018-11-12T22:22:59.134Z,50.90
2018-11-12T22:25:26.678Z,52.03
2018-11-12T22:27:54.419Z,46.13
2018-11-12T22:30:23.107Z,46.20
2018-11-12T22:32:51.688Z,48.87
2018-11-12T22:35:19.079Z,54.27
2018-11-12T22:37:46.821Z,49.18
2018-11-12T22:40:14.978Z,47.93
2018-11-12T22:42:46.471Z,59.48
2018-11-12T22:45:15.302Z,52.35
2018-11-12T22:47:43.757Z,48.78
2018-11-12T22:50:11.841Z,51.83
2018-11-12T22:52:39.985Z,53.85
2018-11-12T22:55:08.563Z,56.68
2018-11-12T22:57:35.925Z,52.05
2018-11-12T23:00:03.363Z,47.58
2018-11-12T23:02:30.838Z,54.15
2018-11-12T23:04:58.425Z,55.78
2018-11-12T23:07:26.047Z,50.38
2018-11-12T23:09:53.566Z,55.30
2018-11-12T23:12:20.995Z,48.17
2018-11-12T23:14:48.523Z,55.28
2018-11-12T23:17:16.754Z,54.05
2018-11-12T23:19:45.033Z,53.95
2018-11-12T23:22:12.627Z,54.03
2018-11-12T23:24:40.200Z,49.03
2018-11-12T23:27:07.860Z,54.67
2018-11-12T23:29:35.185Z,49.05
2018-11-12T23:32:02.493Z,49.08
2018-11-12T23:34:29.852Z,53.17
2018-11-12T23:36:57.211Z,55.43
2018-11-12T23:39:25.045Z,45.75
2018-11-12T23:41:52.358Z,46.92
2018-11-12T23:44:20.419Z,45.88
2018-11-12T23:46:47.871Z,47.70
2018-11-12T23:49:15.598Z,45.25
2018-11-12T23:51:43.194Z,46.18
2018-11-12T23:54:10.588Z,49.08
2018-11-12T23:56:38.189Z,44.15
2018-11-12T23:59:05.547Z,41.98
